Terminal Aerodrome Forecast
Issued by NWS

Home | Current Version | Previous Version | Text Only | Print | Product List | Glossary On
Versions: 1 2 3 4 5 6 7 8 9 10 11 12 13 14 15
000
FTUS45 KSLC 250636 AAA
TAFENV
TAF AMD
KENV 250636Z 2507/2606 33018G28KT P6SM SCT060 BKN120
     FM251200 32010KT P6SM SCT060 SCT120
     FM251800 11007KT P6SM SCT060 BKN150
     FM260000 01008KT P6SM SCT060 BKN120=

USA.gov is the U.S. government's official web portal to all federal, state and local government web resources and services.